sensor_id;sensor_type;location;lat;lon;timestamp;P1;durP1;ratioP1;P2;durP2;ratioP2
72301;SDS011;73902;52.234;5.186;2024-03-23T00:52:53;22.08;;;5.13;;
72301;SDS011;73902;52.234;5.186;2024-03-23T00:55:19;21.65;;;5.35;;
72301;SDS011;73902;52.234;5.186;2024-03-23T00:57:45;22.70;;;5.57;;
72301;SDS011;73902;52.234;5.186;2024-03-23T01:00:11;21.27;;;5.28;;
72301;SDS011;73902;52.234;5.186;2024-03-23T01:02:37;23.55;;;5.35;;
72301;SDS011;73902;52.234;5.186;2024-03-23T01:05:03;19.80;;;5.00;;
72301;SDS011;73902;52.234;5.186;2024-03-23T01:07:29;20.08;;;5.10;;
72301;SDS011;73902;52.234;5.186;2024-03-23T01:09:55;22.90;;;4.78;;
72301;SDS011;73902;52.234;5.186;2024-03-23T01:12:21;22.60;;;5.25;;
72301;SDS011;73902;52.234;5.186;2024-03-23T01:14:47;24.02;;;5.90;;
72301;SDS011;73902;52.234;5.186;2024-03-23T01:17:13;20.77;;;5.45;;
72301;SDS011;73902;52.234;5.186;2024-03-23T01:19:39;21.75;;;5.50;;
72301;SDS011;73902;52.234;5.186;2024-03-23T01:22:06;19.20;;;4.75;;
72301;SDS011;73902;52.234;5.186;2024-03-23T01:24:32;31.10;;;4.97;;
72301;SDS011;73902;52.234;5.186;2024-03-23T01:26:58;23.48;;;5.72;;
72301;SDS011;73902;52.234;5.186;2024-03-23T01:29:24;21.77;;;4.72;;
72301;SDS011;73902;52.234;5.186;2024-03-23T01:31:50;19.25;;;5.90;;
72301;SDS011;73902;52.234;5.186;2024-03-23T01:34:16;21.50;;;4.90;;
72301;SDS011;73902;52.234;5.186;2024-03-23T01:36:42;22.55;;;4.88;;
72301;SDS011;73902;52.234;5.186;2024-03-23T01:39:08;22.23;;;4.90;;
72301;SDS011;73902;52.234;5.186;2024-03-23T01:41:34;26.30;;;5.72;;
72301;SDS011;73902;52.234;5.186;2024-03-23T01:44:04;24.58;;;4.95;;
72301;SDS011;73902;52.234;5.186;2024-03-23T01:46:34;21.38;;;4.82;;
72301;SDS011;73902;52.234;5.186;2024-03-23T01:49:01;30.88;;;6.18;;
72301;SDS011;73902;52.234;5.186;2024-03-23T01:51:27;24.48;;;6.00;;
72301;SDS011;73902;52.234;5.186;2024-03-23T01:53:53;16.95;;;4.78;;
72301;SDS011;73902;52.234;5.186;2024-03-23T01:56:20;26.42;;;5.32;;
72301;SDS011;73902;52.234;5.186;2024-03-23T01:58:46;16.17;;;4.70;;
72301;SDS011;73902;52.234;5.186;2024-03-23T02:01:12;14.40;;;5.15;;
72301;SDS011;73902;52.234;5.186;2024-03-23T02:03:38;24.38;;;5.63;;
72301;SDS011;73902;52.234;5.186;2024-03-23T02:06:04;19.63;;;5.55;;
72301;SDS011;73902;52.234;5.186;2024-03-23T02:08:32;20.10;;;4.78;;
72301;SDS011;73902;52.234;5.186;2024-03-23T02:10:58;27.70;;;5.57;;
72301;SDS011;73902;52.234;5.186;2024-03-23T02:13:24;19.40;;;5.47;;
72301;SDS011;73902;52.234;5.186;2024-03-23T02:15:50;25.35;;;5.00;;
72301;SDS011;73902;52.234;5.186;2024-03-23T02:18:16;27.70;;;4.72;;
72301;SDS011;73902;52.234;5.186;2024-03-23T02:20:42;18.27;;;5.00;;
72301;SDS011;73902;52.234;5.186;2024-03-23T02:23:15;18.23;;;4.65;;
72301;SDS011;73902;52.234;5.186;2024-03-23T02:25:41;20.42;;;4.32;;
72301;SDS011;73902;52.234;5.186;2024-03-23T02:28:08;21.70;;;4.05;;
72301;SDS011;73902;52.234;5.186;2024-03-23T02:30:34;14.93;;;3.67;;
72301;SDS011;73902;52.234;5.186;2024-03-23T02:33:00;17.83;;;3.35;;
72301;SDS011;73902;52.234;5.186;2024-03-23T02:35:26;22.00;;;4.13;;
72301;SDS011;73902;52.234;5.186;2024-03-23T02:37:52;18.52;;;3.47;;
72301;SDS011;73902;52.234;5.186;2024-03-23T02:40:19;20.80;;;4.07;;
72301;SDS011;73902;52.234;5.186;2024-03-23T02:42:46;14.80;;;3.45;;
72301;SDS011;73902;52.234;5.186;2024-03-23T02:45:12;14.02;;;3.50;;
72301;SDS011;73902;52.234;5.186;2024-03-23T02:47:38;13.88;;;3.78;;
72301;SDS011;73902;52.234;5.186;2024-03-23T02:50:04;18.00;;;3.05;;
72301;SDS011;73902;52.234;5.186;2024-03-23T02:52:30;17.48;;;3.10;;
72301;SDS011;73902;52.234;5.186;2024-03-23T02:54:56;21.20;;;3.58;;
72301;SDS011;73902;52.234;5.186;2024-03-23T02:57:22;15.75;;;3.45;;
72301;SDS011;73902;52.234;5.186;2024-03-23T02:59:49;26.02;;;3.35;;
72301;SDS011;73902;52.234;5.186;2024-03-23T03:02:15;13.27;;;2.97;;
72301;SDS011;73902;52.234;5.186;2024-03-23T03:04:41;15.27;;;2.97;;
72301;SDS011;73902;52.234;5.186;2024-03-23T03:07:07;15.65;;;2.40;;
72301;SDS011;73902;52.234;5.186;2024-03-23T03:09:33;17.35;;;2.67;;
72301;SDS011;73902;52.234;5.186;2024-03-23T03:12:00;13.77;;;2.42;;
72301;SDS011;73902;52.234;5.186;2024-03-23T03:14:27;13.38;;;2.90;;
72301;SDS011;73902;52.234;5.186;2024-03-23T03:16:53;18.08;;;2.72;;
72301;SDS011;73902;52.234;5.186;2024-03-23T03:19:19;9.65;;;2.03;;
72301;SDS011;73902;52.234;5.186;2024-03-23T03:21:45;10.85;;;2.25;;
72301;SDS011;73902;52.234;5.186;2024-03-23T03:24:12;9.85;;;2.55;;
72301;SDS011;73902;52.234;5.186;2024-03-23T03:26:38;18.65;;;2.80;;
72301;SDS011;73902;52.234;5.186;2024-03-23T03:29:04;16.60;;;2.42;;
72301;SDS011;73902;52.234;5.186;2024-03-23T03:31:30;11.52;;;1.92;;
72301;SDS011;73902;52.234;5.186;2024-03-23T03:33:56;12.85;;;2.38;;
72301;SDS011;73902;52.234;5.186;2024-03-23T03:36:22;17.45;;;3.00;;
72301;SDS011;73902;52.234;5.186;2024-03-23T03:38:48;11.57;;;2.00;;
72301;SDS011;73902;52.234;5.186;2024-03-23T03:41:14;12.52;;;2.45;;
72301;SDS011;73902;52.234;5.186;2024-03-23T03:43:40;14.88;;;1.65;;
72301;SDS011;73902;52.234;5.186;2024-03-23T03:46:06;8.98;;;2.15;;
72301;SDS011;73902;52.234;5.186;2024-03-23T03:48:33;15.50;;;2.50;;
72301;SDS011;73902;52.234;5.186;2024-03-23T03:50:59;14.77;;;2.22;;
72301;SDS011;73902;52.234;5.186;2024-03-23T03:53:25;17.50;;;2.03;;
72301;SDS011;73902;52.234;5.186;2024-03-23T03:55:51;15.10;;;2.30;;
72301;SDS011;73902;52.234;5.186;2024-03-23T03:58:17;15.43;;;2.53;;
72301;SDS011;73902;52.234;5.186;2024-03-23T04:00:44;11.95;;;2.17;;
72301;SDS011;73902;52.234;5.186;2024-03-23T04:03:10;9.77;;;2.28;;
72301;SDS011;73902;52.234;5.186;2024-03-23T04:05:36;11.35;;;1.60;;
72301;SDS011;73902;52.234;5.186;2024-03-23T04:08:03;15.50;;;2.55;;
72301;SDS011;73902;52.234;5.186;2024-03-23T04:10:29;12.48;;;1.83;;
72301;SDS011;73902;52.234;5.186;2024-03-23T04:12:55;10.95;;;1.90;;
72301;SDS011;73902;52.234;5.186;2024-03-23T04:15:21;13.68;;;1.65;;
72301;SDS011;73902;52.234;5.186;2024-03-23T04:17:47;14.50;;;1.83;;
72301;SDS011;73902;52.234;5.186;2024-03-23T04:20:13;14.30;;;1.73;;
72301;SDS011;73902;52.234;5.186;2024-03-23T04:22:42;12.00;;;2.15;;
72301;SDS011;73902;52.234;5.186;2024-03-23T04:25:07;15.43;;;2.03;;
72301;SDS011;73902;52.234;5.186;2024-03-23T04:27:35;11.85;;;1.85;;
72301;SDS011;73902;52.234;5.186;2024-03-23T04:30:02;13.20;;;1.80;;
72301;SDS011;73902;52.234;5.186;2024-03-23T04:32:29;10.63;;;1.63;;
72301;SDS011;73902;52.234;5.186;2024-03-23T04:34:56;10.30;;;1.98;;
72301;SDS011;73902;52.234;5.186;2024-03-23T04:37:22;10.40;;;1.77;;
72301;SDS011;73902;52.234;5.186;2024-03-23T04:39:48;5.53;;;1.35;;
72301;SDS011;73902;52.234;5.186;2024-03-23T04:42:14;6.90;;;1.60;;
72301;SDS011;73902;52.234;5.186;2024-03-23T04:44:41;18.50;;;2.20;;
72301;SDS011;73902;52.234;5.186;2024-03-23T04:47:07;7.55;;;1.30;;
72301;SDS011;73902;52.234;5.186;2024-03-23T04:49:33;10.30;;;1.50;;
72301;SDS011;73902;52.234;5.186;2024-03-23T04:52:02;9.85;;;1.80;;
72301;SDS011;73902;52.234;5.186;2024-03-23T04:54:28;10.07;;;1.38;;
72301;SDS011;73902;52.234;5.186;2024-03-23T04:56:54;9.15;;;1.60;;
72301;SDS011;73902;52.234;5.186;2024-03-23T04:59:19;11.75;;;1.90;;
72301;SDS011;73902;52.234;5.186;2024-03-23T05:01:46;12.32;;;2.03;;
72301;SDS011;73902;52.234;5.186;2024-03-23T05:04:12;13.00;;;2.25;;
72301;SDS011;73902;52.234;5.186;2024-03-23T05:06:38;9.15;;;1.60;;
72301;SDS011;73902;52.234;5.186;2024-03-23T05:09:04;13.15;;;1.73;;
72301;SDS011;73902;52.234;5.186;2024-03-23T05:11:32;10.77;;;2.22;;
72301;SDS011;73902;52.234;5.186;2024-03-23T05:13:58;5.78;;;1.25;;
72301;SDS011;73902;52.234;5.186;2024-03-23T05:16:24;9.40;;;1.60;;
72301;SDS011;73902;52.234;5.186;2024-03-23T05:18:51;7.50;;;1.67;;
72301;SDS011;73902;52.234;5.186;2024-03-23T05:21:17;7.65;;;1.55;;
72301;SDS011;73902;52.234;5.186;2024-03-23T05:23:43;8.73;;;1.58;;
72301;SDS011;73902;52.234;5.186;2024-03-23T05:26:09;15.23;;;1.70;;
72301;SDS011;73902;52.234;5.186;2024-03-23T05:28:35;11.32;;;2.05;;
72301;SDS011;73902;52.234;5.186;2024-03-23T05:31:01;12.60;;;2.03;;
72301;SDS011;73902;52.234;5.186;2024-03-23T05:33:27;10.88;;;1.50;;
72301;SDS011;73902;52.234;5.186;2024-03-23T05:35:57;8.20;;;1.70;;
72301;SDS011;73902;52.234;5.186;2024-03-23T05:38:23;10.93;;;2.05;;
72301;SDS011;73902;52.234;5.186;2024-03-23T05:40:53;10.85;;;1.73;;
72301;SDS011;73902;52.234;5.186;2024-03-23T05:43:19;12.70;;;1.42;;
72301;SDS011;73902;52.234;5.186;2024-03-23T05:45:45;10.43;;;1.75;;
72301;SDS011;73902;52.234;5.186;2024-03-23T05:48:11;7.65;;;1.20;;
72301;SDS011;73902;52.234;5.186;2024-03-23T05:50:37;7.22;;;1.40;;
72301;SDS011;73902;52.234;5.186;2024-03-23T05:53:04;9.82;;;1.80;;
72301;SDS011;73902;52.234;5.186;2024-03-23T05:55:30;12.93;;;1.80;;
72301;SDS011;73902;52.234;5.186;2024-03-23T05:57:57;6.93;;;1.60;;
72301;SDS011;73902;52.234;5.186;2024-03-23T06:00:25;8.85;;;1.77;;
72301;SDS011;73902;52.234;5.186;2024-03-23T06:02:51;10.98;;;1.50;;
72301;SDS011;73902;52.234;5.186;2024-03-23T06:05:17;9.27;;;1.60;;
72301;SDS011;73902;52.234;5.186;2024-03-23T06:07:43;10.20;;;1.90;;
72301;SDS011;73902;52.234;5.186;2024-03-23T06:10:09;8.98;;;1.60;;
72301;SDS011;73902;52.234;5.186;2024-03-23T06:12:35;11.45;;;1.52;;
72301;SDS011;73902;52.234;5.186;2024-03-23T06:15:01;12.07;;;1.63;;
72301;SDS011;73902;52.234;5.186;2024-03-23T06:17:27;7.20;;;1.25;;
72301;SDS011;73902;52.234;5.186;2024-03-23T06:19:53;12.27;;;1.75;;
72301;SDS011;73902;52.234;5.186;2024-03-23T06:22:19;9.45;;;1.73;;
72301;SDS011;73902;52.234;5.186;2024-03-23T06:24:45;11.98;;;1.65;;
72301;SDS011;73902;52.234;5.186;2024-03-23T06:27:11;7.18;;;1.75;;
72301;SDS011;73902;52.234;5.186;2024-03-23T06:29:37;16.85;;;2.25;;
72301;SDS011;73902;52.234;5.186;2024-03-23T06:32:03;13.00;;;1.85;;
72301;SDS011;73902;52.234;5.186;2024-03-23T06:34:29;14.40;;;1.98;;
72301;SDS011;73902;52.234;5.186;2024-03-23T06:36:55;14.35;;;2.53;;
72301;SDS011;73902;52.234;5.186;2024-03-23T06:39:21;8.93;;;1.77;;
72301;SDS011;73902;52.234;5.186;2024-03-23T06:41:54;17.60;;;2.42;;
72301;SDS011;73902;52.234;5.186;2024-03-23T06:44:20;14.32;;;2.53;;
72301;SDS011;73902;52.234;5.186;2024-03-23T06:46:46;17.92;;;2.85;;
72301;SDS011;73902;52.234;5.186;2024-03-23T06:49:14;14.98;;;2.55;;
72301;SDS011;73902;52.234;5.186;2024-03-23T06:51:40;15.70;;;2.72;;
72301;SDS011;73902;52.234;5.186;2024-03-23T06:54:06;7.93;;;2.30;;
72301;SDS011;73902;52.234;5.186;2024-03-23T06:56:32;13.45;;;2.25;;
72301;SDS011;73902;52.234;5.186;2024-03-23T06:58:59;12.27;;;3.08;;
72301;SDS011;73902;52.234;5.186;2024-03-23T07:01:25;12.00;;;2.53;;
72301;SDS011;73902;52.234;5.186;2024-03-23T07:03:51;11.88;;;3.50;;
72301;SDS011;73902;52.234;5.186;2024-03-23T07:06:17;10.23;;;2.20;;
72301;SDS011;73902;52.234;5.186;2024-03-23T07:08:43;9.05;;;2.80;;
72301;SDS011;73902;52.234;5.186;2024-03-23T07:11:09;10.77;;;2.50;;
72301;SDS011;73902;52.234;5.186;2024-03-23T07:13:35;10.00;;;2.50;;
72301;SDS011;73902;52.234;5.186;2024-03-23T07:16:01;11.45;;;2.60;;
72301;SDS011;73902;52.234;5.186;2024-03-23T07:18:27;11.40;;;2.00;;
72301;SDS011;73902;52.234;5.186;2024-03-23T07:20:54;12.15;;;2.78;;
72301;SDS011;73902;52.234;5.186;2024-03-23T07:23:21;9.95;;;2.20;;
72301;SDS011;73902;52.234;5.186;2024-03-23T07:26:00;11.18;;;2.63;;
72301;SDS011;73902;52.234;5.186;2024-03-23T07:28:26;12.23;;;2.03;;
72301;SDS011;73902;52.234;5.186;2024-03-23T07:31:09;10.82;;;2.20;;
72301;SDS011;73902;52.234;5.186;2024-03-23T07:33:35;11.32;;;2.25;;
72301;SDS011;73902;52.234;5.186;2024-03-23T07:36:02;8.02;;;1.67;;
72301;SDS011;73902;52.234;5.186;2024-03-23T07:38:28;10.98;;;2.20;;
72301;SDS011;73902;52.234;5.186;2024-03-23T07:41:10;11.95;;;2.95;;
72301;SDS011;73902;52.234;5.186;2024-03-23T07:43:37;16.98;;;1.70;;
72301;SDS011;73902;52.234;5.186;2024-03-23T07:46:03;7.18;;;1.80;;
72301;SDS011;73902;52.234;5.186;2024-03-23T07:48:29;10.25;;;1.80;;
72301;SDS011;73902;52.234;5.186;2024-03-23T07:51:17;8.98;;;1.45;;
72301;SDS011;73902;52.234;5.186;2024-03-23T07:53:42;6.03;;;1.30;;
72301;SDS011;73902;52.234;5.186;2024-03-23T07:56:09;11.85;;;2.03;;
72301;SDS011;73902;52.234;5.186;2024-03-23T07:58:36;8.80;;;1.67;;
72301;SDS011;73902;52.234;5.186;2024-03-23T08:03:35;11.60;;;1.98;;
72301;SDS011;73902;52.234;5.186;2024-03-23T08:06:34;10.55;;;1.80;;
72301;SDS011;73902;52.234;5.186;2024-03-23T08:08:54;9.52;;;1.90;;
72301;SDS011;73902;52.234;5.186;2024-03-23T08:11:27;8.32;;;1.60;;
72301;SDS011;73902;52.234;5.186;2024-03-23T08:13:54;6.85;;;1.40;;
72301;SDS011;73902;52.234;5.186;2024-03-23T08:16:20;11.38;;;1.65;;
72301;SDS011;73902;52.234;5.186;2024-03-23T08:18:46;6.40;;;1.10;;
72301;SDS011;73902;52.234;5.186;2024-03-23T08:21:12;21.42;;;3.42;;
72301;SDS011;73902;52.234;5.186;2024-03-23T08:23:38;8.02;;;1.48;;
72301;SDS011;73902;52.234;5.186;2024-03-23T08:26:05;10.77;;;2.13;;
72301;SDS011;73902;52.234;5.186;2024-03-23T08:28:31;12.30;;;1.70;;
72301;SDS011;73902;52.234;5.186;2024-03-23T08:31:00;7.55;;;1.30;;
72301;SDS011;73902;52.234;5.186;2024-03-23T08:33:27;8.65;;;1.70;;
72301;SDS011;73902;52.234;5.186;2024-03-23T08:36:00;11.73;;;1.38;;
72301;SDS011;73902;52.234;5.186;2024-03-23T08:38:26;6.68;;;1.35;;
72301;SDS011;73902;52.234;5.186;2024-03-23T08:40:56;12.57;;;1.85;;
72301;SDS011;73902;52.234;5.186;2024-03-23T08:43:22;8.65;;;1.40;;
72301;SDS011;73902;52.234;5.186;2024-03-23T08:45:48;9.18;;;1.45;;
72301;SDS011;73902;52.234;5.186;2024-03-23T08:48:14;10.27;;;1.40;;
72301;SDS011;73902;52.234;5.186;2024-03-23T08:50:40;7.85;;;1.10;;
72301;SDS011;73902;52.234;5.186;2024-03-23T08:53:06;10.90;;;1.75;;
72301;SDS011;73902;52.234;5.186;2024-03-23T08:55:32;8.45;;;1.67;;
72301;SDS011;73902;52.234;5.186;2024-03-23T08:57:58;8.77;;;1.58;;
72301;SDS011;73902;52.234;5.186;2024-03-23T09:00:25;11.10;;;1.33;;
72301;SDS011;73902;52.234;5.186;2024-03-23T09:02:51;8.50;;;1.40;;
72301;SDS011;73902;52.234;5.186;2024-03-23T09:05:18;13.00;;;3.08;;
72301;SDS011;73902;52.234;5.186;2024-03-23T09:07:44;7.47;;;1.10;;
72301;SDS011;73902;52.234;5.186;2024-03-23T09:10:10;5.85;;;1.05;;
72301;SDS011;73902;52.234;5.186;2024-03-23T09:12:36;7.78;;;1.30;;
72301;SDS011;73902;52.234;5.186;2024-03-23T09:15:02;7.72;;;1.42;;
72301;SDS011;73902;52.234;5.186;2024-03-23T09:17:28;8.82;;;1.48;;
72301;SDS011;73902;52.234;5.186;2024-03-23T09:19:54;9.98;;;1.80;;
72301;SDS011;73902;52.234;5.186;2024-03-23T09:22:20;7.03;;;1.65;;
72301;SDS011;73902;52.234;5.186;2024-03-23T09:24:46;10.77;;;1.60;;
72301;SDS011;73902;52.234;5.186;2024-03-23T09:27:12;9.35;;;1.50;;
72301;SDS011;73902;52.234;5.186;2024-03-23T09:29:38;12.95;;;1.70;;
72301;SDS011;73902;52.234;5.186;2024-03-23T09:32:04;9.30;;;1.50;;
72301;SDS011;73902;52.234;5.186;2024-03-23T09:34:30;10.98;;;2.15;;
72301;SDS011;73902;52.234;5.186;2024-03-23T09:36:56;11.05;;;1.45;;
72301;SDS011;73902;52.234;5.186;2024-03-23T09:39:22;13.15;;;2.25;;
72301;SDS011;73902;52.234;5.186;2024-03-23T09:41:48;11.68;;;1.67;;
72301;SDS011;73902;52.234;5.186;2024-03-23T09:44:14;11.45;;;1.63;;
72301;SDS011;73902;52.234;5.186;2024-03-23T09:46:41;11.32;;;1.77;;
72301;SDS011;73902;52.234;5.186;2024-03-23T09:49:07;13.88;;;1.90;;
72301;SDS011;73902;52.234;5.186;2024-03-23T09:51:35;9.07;;;1.70;;
72301;SDS011;73902;52.234;5.186;2024-03-23T09:54:01;12.50;;;1.85;;
72301;SDS011;73902;52.234;5.186;2024-03-23T09:56:27;12.02;;;2.13;;
72301;SDS011;73902;52.234;5.186;2024-03-23T09:58:59;11.27;;;1.38;;
72301;SDS011;73902;52.234;5.186;2024-03-23T10:01:26;7.07;;;1.58;;
72301;SDS011;73902;52.234;5.186;2024-03-23T10:03:52;11.50;;;1.52;;
72301;SDS011;73902;52.234;5.186;2024-03-23T10:06:21;12.05;;;2.17;;
72301;SDS011;73902;52.234;5.186;2024-03-23T10:08:49;11.93;;;2.10;;
72301;SDS011;73902;52.234;5.186;2024-03-23T10:11:16;9.40;;;1.88;;
72301;SDS011;73902;52.234;5.186;2024-03-23T10:13:42;16.02;;;1.63;;
72301;SDS011;73902;52.234;5.186;2024-03-23T10:16:09;11.90;;;1.80;;
72301;SDS011;73902;52.234;5.186;2024-03-23T10:18:38;17.45;;;2.00;;
72301;SDS011;73902;52.234;5.186;2024-03-23T10:23:31;9.02;;;1.80;;
72301;SDS011;73902;52.234;5.186;2024-03-23T10:28:50;15.88;;;1.85;;
72301;SDS011;73902;52.234;5.186;2024-03-23T10:31:16;14.63;;;2.22;;
72301;SDS011;73902;52.234;5.186;2024-03-23T10:33:44;11.27;;;1.42;;
72301;SDS011;73902;52.234;5.186;2024-03-23T10:36:10;10.70;;;1.75;;
72301;SDS011;73902;52.234;5.186;2024-03-23T10:38:36;8.88;;;1.35;;
72301;SDS011;73902;52.234;5.186;2024-03-23T10:41:03;7.90;;;1.20;;
72301;SDS011;73902;52.234;5.186;2024-03-23T10:43:30;8.68;;;1.88;;
72301;SDS011;73902;52.234;5.186;2024-03-23T10:45:58;7.25;;;1.23;;
72301;SDS011;73902;52.234;5.186;2024-03-23T10:48:24;10.00;;;1.70;;
72301;SDS011;73902;52.234;5.186;2024-03-23T10:50:50;11.50;;;1.30;;
72301;SDS011;73902;52.234;5.186;2024-03-23T10:53:16;8.40;;;1.60;;
72301;SDS011;73902;52.234;5.186;2024-03-23T10:55:43;7.80;;;1.65;;
72301;SDS011;73902;52.234;5.186;2024-03-23T10:58:09;12.90;;;2.03;;
72301;SDS011;73902;52.234;5.186;2024-03-23T11:00:37;6.13;;;1.40;;
72301;SDS011;73902;52.234;5.186;2024-03-23T11:05:48;10.02;;;1.50;;
72301;SDS011;73902;52.234;5.186;2024-03-23T11:08:29;9.60;;;1.33;;
72301;SDS011;73902;52.234;5.186;2024-03-23T11:13:21;8.27;;;1.23;;
72301;SDS011;73902;52.234;5.186;2024-03-23T11:15:48;10.38;;;1.70;;
72301;SDS011;73902;52.234;5.186;2024-03-23T11:18:20;14.02;;;1.63;;
72301;SDS011;73902;52.234;5.186;2024-03-23T11:20:46;13.23;;;2.15;;
72301;SDS011;73902;52.234;5.186;2024-03-23T11:23:27;8.50;;;1.52;;
72301;SDS011;73902;52.234;5.186;2024-03-23T11:25:54;9.73;;;1.30;;
72301;SDS011;73902;52.234;5.186;2024-03-23T11:28:20;10.95;;;1.52;;
72301;SDS011;73902;52.234;5.186;2024-03-23T11:30:46;15.25;;;1.60;;
72301;SDS011;73902;52.234;5.186;2024-03-23T11:33:12;9.63;;;1.40;;
72301;SDS011;73902;52.234;5.186;2024-03-23T11:35:39;12.73;;;1.65;;
72301;SDS011;73902;52.234;5.186;2024-03-23T11:38:06;8.52;;;1.30;;
72301;SDS011;73902;52.234;5.186;2024-03-23T11:40:36;7.13;;;1.48;;
72301;SDS011;73902;52.234;5.186;2024-03-23T11:43:03;13.30;;;1.50;;
72301;SDS011;73902;52.234;5.186;2024-03-23T11:45:31;8.02;;;1.20;;
72301;SDS011;73902;52.234;5.186;2024-03-23T11:48:05;9.65;;;1.20;;
72301;SDS011;73902;52.234;5.186;2024-03-23T11:50:32;9.23;;;1.20;;
72301;SDS011;73902;52.234;5.186;2024-03-23T11:55:50;11.80;;;1.58;;
72301;SDS011;73902;52.234;5.186;2024-03-23T11:58:16;11.52;;;1.45;;
72301;SDS011;73902;52.234;5.186;2024-03-23T12:00:48;11.90;;;1.75;;
72301;SDS011;73902;52.234;5.186;2024-03-23T12:03:16;11.15;;;1.83;;
72301;SDS011;73902;52.234;5.186;2024-03-23T12:05:47;8.43;;;1.67;;
72301;SDS011;73902;52.234;5.186;2024-03-23T12:08:17;9.27;;;1.35;;
72301;SDS011;73902;52.234;5.186;2024-03-23T12:10:52;12.95;;;1.90;;
72301;SDS011;73902;52.234;5.186;2024-03-23T12:13:19;10.18;;;1.63;;
72301;SDS011;73902;52.234;5.186;2024-03-23T12:15:49;10.27;;;1.23;;
72301;SDS011;73902;52.234;5.186;2024-03-23T12:18:16;7.85;;;1.48;;
72301;SDS011;73902;52.234;5.186;2024-03-23T12:20:42;9.30;;;1.20;;
72301;SDS011;73902;52.234;5.186;2024-03-23T12:23:09;8.50;;;1.15;;
72301;SDS011;73902;52.234;5.186;2024-03-23T12:25:36;9.48;;;1.60;;
72301;SDS011;73902;52.234;5.186;2024-03-23T12:28:02;6.00;;;1.27;;
72301;SDS011;73902;52.234;5.186;2024-03-23T12:30:31;6.25;;;0.88;;
72301;SDS011;73902;52.234;5.186;2024-03-23T12:32:57;13.32;;;1.70;;
72301;SDS011;73902;52.234;5.186;2024-03-23T12:35:23;9.65;;;1.33;;
72301;SDS011;73902;52.234;5.186;2024-03-23T12:37:49;6.63;;;1.20;;
72301;SDS011;73902;52.234;5.186;2024-03-23T12:40:15;5.55;;;1.13;;
72301;SDS011;73902;52.234;5.186;2024-03-23T12:42:41;10.18;;;1.98;;
72301;SDS011;73902;52.234;5.186;2024-03-23T12:45:07;7.70;;;1.27;;
72301;SDS011;73902;52.234;5.186;2024-03-23T12:47:33;7.65;;;1.45;;
72301;SDS011;73902;52.234;5.186;2024-03-23T12:49:59;11.43;;;1.63;;
72301;SDS011;73902;52.234;5.186;2024-03-23T12:52:25;7.40;;;1.25;;
72301;SDS011;73902;52.234;5.186;2024-03-23T12:54:56;8.90;;;1.20;;
72301;SDS011;73902;52.234;5.186;2024-03-23T12:59:48;8.45;;;1.17;;
72301;SDS011;73902;52.234;5.186;2024-03-23T13:02:16;7.30;;;1.95;;
72301;SDS011;73902;52.234;5.186;2024-03-23T13:04:43;10.38;;;1.40;;
72301;SDS011;73902;52.234;5.186;2024-03-23T13:07:09;10.77;;;1.40;;
72301;SDS011;73902;52.234;5.186;2024-03-23T13:09:34;6.90;;;1.17;;
72301;SDS011;73902;52.234;5.186;2024-03-23T13:12:00;8.40;;;1.33;;
72301;SDS011;73902;52.234;5.186;2024-03-23T13:14:27;7.57;;;1.38;;
72301;SDS011;73902;52.234;5.186;2024-03-23T13:16:53;9.90;;;1.02;;
72301;SDS011;73902;52.234;5.186;2024-03-23T13:19:19;7.85;;;1.20;;
72301;SDS011;73902;52.234;5.186;2024-03-23T13:21:45;8.13;;;1.67;;
72301;SDS011;73902;52.234;5.186;2024-03-23T13:24:11;7.13;;;1.13;;
72301;SDS011;73902;52.234;5.186;2024-03-23T13:26:37;7.32;;;1.17;;
72301;SDS011;73902;52.234;5.186;2024-03-23T13:29:03;9.07;;;1.35;;
72301;SDS011;73902;52.234;5.186;2024-03-23T13:31:29;10.50;;;1.40;;
72301;SDS011;73902;52.234;5.186;2024-03-23T13:33:55;6.78;;;1.00;;
72301;SDS011;73902;52.234;5.186;2024-03-23T13:36:21;6.70;;;1.08;;
72301;SDS011;73902;52.234;5.186;2024-03-23T13:38:47;8.00;;;1.20;;
72301;SDS011;73902;52.234;5.186;2024-03-23T13:41:13;10.57;;;1.40;;
72301;SDS011;73902;52.234;5.186;2024-03-23T13:43:39;5.95;;;1.00;;
72301;SDS011;73902;52.234;5.186;2024-03-23T13:46:05;10.73;;;1.20;;
72301;SDS011;73902;52.234;5.186;2024-03-23T13:48:31;10.07;;;1.60;;
72301;SDS011;73902;52.234;5.186;2024-03-23T13:51:01;3.60;;;0.85;;
72301;SDS011;73902;52.234;5.186;2024-03-23T13:53:27;5.95;;;1.10;;
72301;SDS011;73902;52.234;5.186;2024-03-23T13:55:53;11.13;;;1.73;;
72301;SDS011;73902;52.234;5.186;2024-03-23T13:58:20;10.27;;;1.42;;
72301;SDS011;73902;52.234;5.186;2024-03-23T14:00:46;5.88;;;1.10;;
72301;SDS011;73902;52.234;5.186;2024-03-23T14:03:12;8.02;;;1.45;;
72301;SDS011;73902;52.234;5.186;2024-03-23T14:05:38;5.90;;;1.02;;
72301;SDS011;73902;52.234;5.186;2024-03-23T14:08:05;4.85;;;1.15;;
72301;SDS011;73902;52.234;5.186;2024-03-23T14:10:31;8.70;;;1.23;;
72301;SDS011;73902;52.234;5.186;2024-03-23T14:12:57;6.72;;;1.20;;
72301;SDS011;73902;52.234;5.186;2024-03-23T14:15:25;5.10;;;0.95;;
72301;SDS011;73902;52.234;5.186;2024-03-23T14:17:51;5.15;;;1.15;;
72301;SDS011;73902;52.234;5.186;2024-03-23T14:20:17;4.05;;;0.90;;
72301;SDS011;73902;52.234;5.186;2024-03-23T14:22:43;9.45;;;0.95;;
72301;SDS011;73902;52.234;5.186;2024-03-23T14:25:09;8.45;;;1.60;;
72301;SDS011;73902;52.234;5.186;2024-03-23T14:27:36;8.52;;;0.82;;
72301;SDS011;73902;52.234;5.186;2024-03-23T14:30:03;7.90;;;1.20;;
72301;SDS011;73902;52.234;5.186;2024-03-23T14:32:30;5.18;;;0.93;;
72301;SDS011;73902;52.234;5.186;2024-03-23T14:35:02;5.80;;;1.25;;
72301;SDS011;73902;52.234;5.186;2024-03-23T14:37:28;9.43;;;1.10;;
72301;SDS011;73902;52.234;5.186;2024-03-23T14:39:57;8.38;;;1.40;;
72301;SDS011;73902;52.234;5.186;2024-03-23T14:42:24;4.93;;;0.88;;
72301;SDS011;73902;52.234;5.186;2024-03-23T14:44:50;10.23;;;1.23;;
72301;SDS011;73902;52.234;5.186;2024-03-23T14:47:17;5.13;;;1.40;;
72301;SDS011;73902;52.234;5.186;2024-03-23T14:49:43;9.30;;;1.30;;
72301;SDS011;73902;52.234;5.186;2024-03-23T14:52:16;7.18;;;1.60;;
72301;SDS011;73902;52.234;5.186;2024-03-23T14:54:43;2.85;;;0.70;;
72301;SDS011;73902;52.234;5.186;2024-03-23T14:57:09;10.75;;;1.75;;
72301;SDS011;73902;52.234;5.186;2024-03-23T14:59:36;7.57;;;1.30;;
72301;SDS011;73902;52.234;5.186;2024-03-23T15:02:08;6.93;;;1.05;;
72301;SDS011;73902;52.234;5.186;2024-03-23T15:04:34;11.10;;;1.20;;
72301;SDS011;73902;52.234;5.186;2024-03-23T15:07:01;10.85;;;1.20;;
72301;SDS011;73902;52.234;5.186;2024-03-23T15:09:27;11.77;;;2.10;;
72301;SDS011;73902;52.234;5.186;2024-03-23T15:11:53;7.95;;;1.63;;
72301;SDS011;73902;52.234;5.186;2024-03-23T15:14:20;7.03;;;1.10;;
72301;SDS011;73902;52.234;5.186;2024-03-23T15:16:46;7.32;;;1.00;;
72301;SDS011;73902;52.234;5.186;2024-03-23T15:19:14;9.13;;;1.23;;
72301;SDS011;73902;52.234;5.186;2024-03-23T15:21:42;5.30;;;1.60;;
72301;SDS011;73902;52.234;5.186;2024-03-23T15:24:08;7.05;;;1.30;;
72301;SDS011;73902;52.234;5.186;2024-03-23T15:26:36;6.68;;;1.50;;
72301;SDS011;73902;52.234;5.186;2024-03-23T15:29:02;8.35;;;1.40;;
72301;SDS011;73902;52.234;5.186;2024-03-23T15:31:28;7.20;;;1.98;;
72301;SDS011;73902;52.234;5.186;2024-03-23T15:33:55;11.18;;;2.05;;
72301;SDS011;73902;52.234;5.186;2024-03-23T15:36:21;7.00;;;1.50;;
72301;SDS011;73902;52.234;5.186;2024-03-23T15:38:47;9.15;;;1.58;;
72301;SDS011;73902;52.234;5.186;2024-03-23T15:41:14;9.73;;;2.10;;
72301;SDS011;73902;52.234;5.186;2024-03-23T15:43:40;8.73;;;2.20;;
72301;SDS011;73902;52.234;5.186;2024-03-23T15:46:06;8.95;;;1.40;;
72301;SDS011;73902;52.234;5.186;2024-03-23T15:48:34;8.15;;;1.42;;